Time;durP1;ratioP1;P1;durP2;ratioP2;P2;SDS_P1;SDS_P2;PMS_P1;PMS_P2;Temp;Humidity;BMP_temperature;BMP_pressure;BME280_temperature;BME280_humidity;BME280_pressure;Samples;Min_cycle;Max_cycle;Signal;HPM_P1;HPM_P2
2021/11/21 00:02:47;;;;;;;;;;;;;;;;;;6175990;28;20431;-79
2021/11/21 00:05:49;;;;;;;;;;;;;;;;;;6157980;28;19929;-79
2021/11/21 00:08:52;;;;;;;;;;;;;;;;;;6159597;28;19997;-82
2021/11/21 00:11:54;;;;;;;;;;;;;;;;;;6164174;28;19926;-80
2021/11/21 00:14:55;;;;;;;;;;;;;;;;;;6200050;28;20019;-82
2021/11/21 00:17:58;;;;;;;;;;;;;;;;;;6199766;28;19932;-80
2021/11/21 00:20:59;;;;;;;;;;;;;;;;;;6184799;28;19922;-80
2021/11/21 00:24:01;;;;;;;;;;;;;;;;;;6174897;28;19922;-82
2021/11/21 00:27:03;;;;;;;;;;;;;;;;;;6180011;28;19922;-82
2021/11/21 00:30:05;;;;;;;;;;;;;;;;;;6198529;28;19918;-80
2021/11/21 00:33:07;;;;;;;;;;;;;;;;;;6182314;28;19986;-79
2021/11/21 00:36:09;;;;;;;;;;;;;;;;;;6177119;28;19928;-81
2021/11/21 00:39:10;;;;;;;;;;;;;;;;;;6197820;28;19929;-82
2021/11/21 00:42:15;;;;;;;;;;;;;;;;;;6180663;28;20044;-81
2021/11/21 00:45:16;;;;;;;;;;;;;;;;;;6181619;28;19981;-82
2021/11/21 00:48:22;;;;;;;;;;;;;;;;;;6181366;28;19988;-80
2021/11/21 00:51:24;;;;;;;;;;;;;;;;;;6179970;28;19921;-80
2021/11/21 00:54:30;;;;;;;;;;;;;;;;;;6198058;28;19928;-82
2021/11/21 00:57:31;;;;;;;;;;;;;;;;;;6202522;28;20298;-82
2021/11/21 01:00:33;;;;;;;;;;;;;;;;;;6222493;28;19929;-81
2021/11/21 01:03:35;;;;;;;;;;;;;;;;;;6205699;28;20331;-78
2021/11/21 01:06:37;;;;;;;;;;;;;;;;;;6202014;28;19922;-79
2021/11/21 01:09:39;;;;;;;;;;;;;;;;;;6198036;28;19989;-81
2021/11/21 01:12:40;;;;;;;;;;;;;;;;;;6200864;28;19921;-82
2021/11/21 01:15:45;;;;;;;;;;;;;;;;;;6203787;28;19928;-81
2021/11/21 01:18:46;;;;;;;;;;;;;;;;;;6198541;28;19935;-80
2021/11/21 01:21:48;;;;;;;;;;;;;;;;;;6195557;28;19934;-78
2021/11/21 01:24:50;;;;;;;;;;;;;;;;;;6198357;28;19921;-78
2021/11/21 01:27:52;;;;;;;;;;;;;;;;;;6176617;28;19925;-80
2021/11/21 01:30:53;;;;;;;;;;;;;;;;;;6180554;28;19922;-80
2021/11/21 01:33:55;;;;;;;;;;;;;;;;;;6196947;28;20129;-78
2021/11/21 01:36:56;;;;;;;;;;;;;;;;;;6176599;28;19965;-80
2021/11/21 01:39:58;;;;;;;;;;;;;;;;;;6200920;28;20008;-82
2021/11/21 01:43:00;;;;;;;;;;;;;;;;;;6196910;28;19981;-80
2021/11/21 01:46:02;;;;;;;;;;;;;;;;;;6183850;28;20387;-81
2021/11/21 01:49:05;;;;;;;;;;;;;;;;;;6185990;28;20310;-80
2021/11/21 01:52:07;;;;;;;;;;;;;;;;;;6184179;28;19976;-77
2021/11/21 01:55:09;;;;;;;;;;;;;;;;;;6172826;28;19926;-82
2021/11/21 01:58:10;;;;;;;;;;;;;;;;;;6190357;28;19959;-81
2021/11/21 02:01:12;;;;;;;;;;;;;;;;;;6227982;28;19936;-80
2021/11/21 02:04:13;;;;;;;;;;;;;;;;;;6228220;28;19925;-82
2021/11/21 02:07:15;;;;;;;;;;;;;;;;;;6192034;28;20342;-82
2021/11/21 02:10:22;;;;;;;;;;;;;;;;;;6202625;28;19953;-80
2021/11/21 02:13:24;;;;;;;;;;;;;;;;;;6191281;28;19921;-82
2021/11/21 02:16:27;;;;;;;;;;;;;;;;;;6187173;28;20008;-81
2021/11/21 02:19:30;;;;;;;;;;;;;;;;;;6186497;28;20000;-79
2021/11/21 02:22:32;;;;;;;;;;;;;;;;;;6201400;28;19922;-81
2021/11/21 02:25:34;;;;;;;;;;;;;;;;;;6185300;28;19925;-82
2021/11/21 02:28:37;;;;;;;;;;;;;;;;;;6218832;28;19921;-81
2021/11/21 02:31:38;;;;;;;;;;;;;;;;;;6185503;28;19940;-81
2021/11/21 02:34:41;;;;;;;;;;;;;;;;;;6185083;28;19922;-80
2021/11/21 02:37:42;;;;;;;;;;;;;;;;;;6179418;28;19985;-79
2021/11/21 02:40:46;;;;;;;;;;;;;;;;;;6198617;28;19922;-81
2021/11/21 02:43:48;;;;;;;;;;;;;;;;;;6198186;28;19953;-82
2021/11/21 02:46:50;;;;;;;;;;;;;;;;;;6178003;28;20461;-82
2021/11/21 02:49:53;;;;;;;;;;;;;;;;;;6178155;28;19930;-81
2021/11/21 02:52:56;;;;;;;;;;;;;;;;;;6193471;28;19972;-82
2021/11/21 02:55:59;;;;;;;;;;;;;;;;;;6174548;28;19925;-81
2021/11/21 02:59:01;;;;;;;;;;;;;;;;;;6183418;28;19922;-80
2021/11/21 03:02:02;;;;;;;;;;;;;;;;;;6182820;28;20010;-79
2021/11/21 03:05:04;;;;;;;;;;;;;;;;;;6197489;28;19925;-81
2021/11/21 03:08:06;;;;;;;;;;;;;;;;;;6166395;28;19921;-80
2021/11/21 03:11:14;;;;;;;;;;;;;;;;;;6201100;28;19995;-78
2021/11/21 03:14:19;;;;;;;;;;;;;;;;;;6180064;28;20013;-80
2021/11/21 03:17:21;;;;;;;;;;;;;;;;;;6198261;28;19952;-79
2021/11/21 03:20:25;;;;;;;;;;;;;;;;;;6183526;28;19972;-79
2021/11/21 03:23:27;;;;;;;;;;;;;;;;;;6187708;28;19921;-79
2021/11/21 03:26:29;;;;;;;;;;;;;;;;;;6179526;28;20012;-81
2021/11/21 03:29:32;;;;;;;;;;;;;;;;;;6183328;28;19926;-80
2021/11/21 03:32:34;;;;;;;;;;;;;;;;;;6201442;28;19957;-78
2021/11/21 03:35:35;;;;;;;;;;;;;;;;;;6194333;28;19928;-81
2021/11/21 03:38:37;;;;;;;;;;;;;;;;;;6201494;28;19921;-81
2021/11/21 03:41:39;;;;;;;;;;;;;;;;;;6182543;28;19928;-81
2021/11/21 03:44:40;;;;;;;;;;;;;;;;;;6176296;28;19925;-78
2021/11/21 03:47:42;;;;;;;;;;;;;;;;;;6194809;28;20020;-79
2021/11/21 03:50:44;;;;;;;;;;;;;;;;;;6196818;28;19925;-79
2021/11/21 03:53:46;;;;;;;;;;;;;;;;;;6178236;28;19922;-79
2021/11/21 03:56:47;;;;;;;;;;;;;;;;;;6183713;28;19992;-80
2021/11/21 03:59:49;;;;;;;;;;;;;;;;;;6182411;28;20407;-77
2021/11/21 04:02:50;;;;;;;;;;;;;;;;;;6182498;28;19980;-81
2021/11/21 04:05:52;;;;;;;;;;;;;;;;;;6199629;28;19922;-80
2021/11/21 04:08:54;;;;;;;;;;;;;;;;;;6183131;28;20009;-78
2021/11/21 04:11:55;;;;;;;;;;;;;;;;;;6198707;28;19926;-79
2021/11/21 04:14:57;;;;;;;;;;;;;;;;;;6208114;28;19921;-80
2021/11/21 04:17:58;;;;;;;;;;;;;;;;;;6209954;28;19926;-78
2021/11/21 04:21:00;;;;;;;;;;;;;;;;;;6194334;28;20009;-80
2021/11/21 04:24:03;;;;;;;;;;;;;;;;;;6200585;28;19922;-82
2021/11/21 04:27:04;;;;;;;;;;;;;;;;;;6199196;28;20397;-81
2021/11/21 04:30:07;;;;;;;;;;;;;;;;;;6198600;28;19989;-80
2021/11/21 04:33:08;;;;;;;;;;;;;;;;;;6200524;28;19944;-82
2021/11/21 04:36:10;;;;;;;;;;;;;;;;;;6197961;28;19989;-76
2021/11/21 04:39:12;;;;;;;;;;;;;;;;;;6199814;28;19996;-78
2021/11/21 04:42:13;;;;;;;;;;;;;;;;;;6197363;28;20068;-82
2021/11/21 04:45:15;;;;;;;;;;;;;;;;;;6181556;28;19925;-81
2021/11/21 04:48:17;;;;;;;;;;;;;;;;;;6201469;28;19945;-80
2021/11/21 04:51:19;;;;;;;;;;;;;;;;;;6182167;28;19922;-81
2021/11/21 04:54:25;;;;;;;;;;;;;;;;;;6183464;28;20009;-79
2021/11/21 04:57:27;;;;;;;;;;;;;;;;;;6180659;28;19922;-80
2021/11/21 05:00:29;;;;;;;;;;;;;;;;;;6165519;28;19921;-82
2021/11/21 05:03:31;;;;;;;;;;;;;;;;;;6182306;28;19929;-81
2021/11/21 05:06:33;;;;;;;;;;;;;;;;;;6197471;28;20507;-81
2021/11/21 05:09:35;;;;;;;;;;;;;;;;;;6204623;28;19925;-82
2021/11/21 05:12:37;;;;;;;;;;;;;;;;;;6190126;28;19926;-81
2021/11/21 05:15:39;;;;;;;;;;;;;;;;;;6196233;28;19980;-80
2021/11/21 05:18:40;;;;;;;;;;;;;;;;;;6195559;28;19950;-79
2021/11/21 05:21:42;;;;;;;;;;;;;;;;;;6195518;28;20083;-82
2021/11/21 05:24:45;;;;;;;;;;;;;;;;;;6187042;28;20306;-81
2021/11/21 05:27:49;;;;;;;;;;;;;;;;;;6190430;28;20106;-81
2021/11/21 05:30:51;;;;;;;;;;;;;;;;;;6173915;28;20004;-82
2021/11/21 05:33:53;;;;;;;;;;;;;;;;;;6159550;28;19922;-81
2021/11/21 05:36:55;;;;;;;;;;;;;;;;;;6173993;28;19922;-79
2021/11/21 05:39:57;;;;;;;;;;;;;;;;;;6171290;28;19922;-82
2021/11/21 05:42:58;;;;;;;;;;;;;;;;;;6158775;28;20391;-80
2021/11/21 05:46:00;;;;;;;;;;;;;;;;;;6161523;28;20650;-82
2021/11/21 05:49:02;;;;;;;;;;;;;;;;;;6167825;28;19985;-79
2021/11/21 05:52:04;;;;;;;;;;;;;;;;;;6162137;28;20018;-82
2021/11/21 05:55:06;;;;;;;;;;;;;;;;;;6167334;28;19922;-82
2021/11/21 05:59:37;;;;;;;19.67;8.20;;;;;;;;;;6261214;28;20123;-82
2021/11/21 06:02:39;;;;;;;22.55;9.40;;;;;;;;;;6245942;28;20124;-81
2021/11/21 06:05:41;;;;;;;23.85;10.93;;;;;;;;;;6264806;28;20045;-81
2021/11/21 06:08:42;;;;;;;25.02;10.55;;;;;;;;;;6247818;28;20051;-82
2021/11/21 06:11:44;;;;;;;26.80;12.07;;;;;;;;;;6263688;28;20051;-83
2021/11/21 06:14:46;;;;;;;27.45;11.52;;;;;;;;;;6261120;28;20045;-79
2021/11/21 06:17:48;;;;;;;29.85;11.40;;;;;;;;;;6281717;28;20522;-81
2021/11/21 06:20:49;;;;;;;35.65;12.98;;;;;;;;;;6261706;28;20083;-81
2021/11/21 06:23:51;;;;;;;34.45;12.02;;;;;;;;;;6263991;28;20490;-81
2021/11/21 06:26:52;;;;;;;32.13;12.93;;;;;;;;;;6262159;28;20055;-81
2021/11/21 06:29:54;;;;;;;34.88;13.07;;;;;;;;;;6277371;28;20045;-82
2021/11/21 06:32:56;;;;;;;35.70;12.38;;;;;;;;;;6260927;28;20049;-82
2021/11/21 06:35:57;;;;;;;33.58;12.70;;;;;;;;;;6259645;28;20128;-83
2021/11/21 06:38:59;;;;;;;34.78;12.52;;;;;;;;;;6262768;28;20445;-78
2021/11/21 06:42:01;;;;;;;33.50;12.63;;;;;;;;;;6257574;28;20060;-78
2021/11/21 06:45:04;;;;;;;33.10;12.00;;;;;;;;;;6280048;28;20072;-79
2021/11/21 06:48:10;;;;;;;32.85;11.95;;;;;;;;;;6250755;28;20077;-79
2021/11/21 06:51:13;;;;;;;38.42;13.55;;;;;;;;;;6263086;28;20123;-80
2021/11/21 06:54:15;;;;;;;32.92;11.95;;;;;;;;;;6271278;28;20037;-78
2021/11/21 06:57:19;;;;;;;34.30;11.95;;;;;;;;;;6269484;28;20489;-79
2021/11/21 07:00:20;;;;;;;35.42;12.20;;;;;;;;;;6271171;28;20149;-78
2021/11/21 07:03:22;;;;;;;32.78;12.77;;;;;;;;;;6272908;28;20709;-79
2021/11/21 07:06:39;;;;;;;34.72;12.80;;;;;;;;;;6281770;28;20068;-79
2021/11/21 07:09:43;;;;;;;33.15;12.57;;;;;;;;;;6277842;28;20120;-79
2021/11/21 07:12:52;;;;;;;37.05;12.77;;;;;;;;;;6267175;28;20064;-80
2021/11/21 07:15:54;;;;;;;33.25;12.25;;;;;;;;;;6278710;28;20052;-81
2021/11/21 07:18:57;;;;;;;36.47;12.32;;;;;;;;;;6268469;28;20051;-81
2021/11/21 07:21:58;;;;;;;38.17;12.43;;;;;;;;;;6290893;28;20058;-82
2021/11/21 07:25:01;;;;;;;35.40;10.07;;;;;;;;;;6283504;28;20067;-81
2021/11/21 07:28:02;;;;;;;31.92;10.70;;;;;;;;;;6267756;28;20168;-81
2021/11/21 07:31:05;;;;;;;27.73;11.00;;;;;;;;;;6250604;28;20135;-79
2021/11/21 07:34:07;;;;;;;32.45;11.20;;;;;;;;;;6265493;28;20052;-79
2021/11/21 07:37:08;;;;;;;30.98;11.10;;;;;;;;;;6259852;28;20045;-79
2021/11/21 07:40:12;;;;;;;28.88;11.18;;;;;;;;;;6246181;28;20103;-80
2021/11/21 07:43:14;;;;;;;26.85;9.60;;;;;;;;;;6263535;28;20182;-80
2021/11/21 07:46:15;;;;;;;24.38;8.13;;;;;;;;;;6266882;28;20531;-80
2021/11/21 07:49:18;;;;;;;23.52;8.88;;;;;;;;;;6267729;28;20095;-80
2021/11/21 07:52:19;;;;;;;20.15;8.45;;;;;;;;;;6189441;28;20113;-80
2021/11/21 07:55:21;;;;;;;18.70;7.97;;;;;;;;;;6226181;28;20053;-79
2021/11/21 07:58:23;;;;;;;20.50;7.22;;;;;;;;;;6214419;28;20044;-82
2021/11/21 08:01:24;;;;;;;21.30;7.25;;;;;;;;;;6213863;28;20041;-80
2021/11/21 08:04:26;;;;;;;16.80;7.53;;;;;;;;;;6223338;28;20049;-80
2021/11/21 08:07:28;;;;;;;15.73;6.22;;;;;;;;;;6221004;28;20051;-80
2021/11/21 08:10:30;;;;;;;16.40;6.93;;;;;;;;;;6245916;28;20045;-81
2021/11/21 08:13:32;;;;;;;14.25;5.65;;;;;;;;;;6263454;28;20131;-80
2021/11/21 08:16:33;;;;;;;14.63;6.22;;;;;;;;;;6264509;28;20048;-80
2021/11/21 08:19:35;;;;;;;12.50;5.72;;;;;;;;;;6265989;28;20041;-81
2021/11/21 08:22:37;;;;;;;16.45;6.30;;;;;;;;;;6265695;28;20041;-83
2021/11/21 08:25:39;;;;;;;12.45;5.30;;;;;;;;;;6239299;28;20486;-83
2021/11/21 08:28:40;;;;;;;13.93;6.03;;;;;;;;;;6246652;28;20497;-81
2021/11/21 08:31:49;;;;;;;11.63;5.65;;;;;;;;;;6243615;28;20051;-80
2021/11/21 08:34:51;;;;;;;17.35;6.50;;;;;;;;;;6246737;28;20075;-80
2021/11/21 08:37:55;;;;;;;15.90;7.45;;;;;;;;;;6261489;28;20535;-79
2021/11/21 08:40:57;;;;;;;16.90;6.72;;;;;;;;;;6238683;28;20048;-81
2021/11/21 08:43:59;;;;;;;15.60;6.50;;;;;;;;;;6232481;28;20041;-80
2021/11/21 08:47:00;;;;;;;17.90;6.55;;;;;;;;;;6236504;28;20045;-80
2021/11/21 08:50:05;;;;;;;14.68;6.18;;;;;;;;;;6246951;28;20037;-82
2021/11/21 08:53:07;;;;;;;14.90;5.75;;;;;;;;;;6265689;28;20033;-80
2021/11/21 08:56:08;;;;;;;16.33;5.95;;;;;;;;;;6251093;28;20509;-81
2021/11/21 08:59:10;;;;;;;10.90;5.32;;;;;;;;;;6268818;28;20045;-81
2021/11/21 09:02:12;;;;;;;13.05;6.07;;;;;;;;;;6254642;28;20549;-79
2021/11/21 09:05:13;;;;;;;19.23;6.88;;;;;;;;;;6243300;28;20055;-79
2021/11/21 09:08:15;;;;;;;13.75;6.18;;;;;;;;;;6258295;28;20579;-80
2021/11/21 09:11:17;;;;;;;12.63;6.03;;;;;;;;;;6253620;28;20502;-81
2021/11/21 09:14:19;;;;;;;15.23;6.57;;;;;;;;;;6259250;28;20128;-80
2021/11/21 09:17:21;;;;;;;14.30;6.45;;;;;;;;;;6254931;28;20057;-80
2021/11/21 09:20:23;;;;;;;14.48;5.90;;;;;;;;;;6264873;28;20044;-80
2021/11/21 09:23:26;;;;;;;15.00;6.25;;;;;;;;;;6255572;28;20118;-81
2021/11/21 09:26:29;;;;;;;15.43;6.32;;;;;;;;;;6268711;28;20044;-80
2021/11/21 09:29:31;;;;;;;;;;;;;;;;;;6241401;28;20090;-80
2021/11/21 09:32:34;;;;;;;14.10;6.13;;;;;;;;;;6270292;28;19921;-79
2021/11/21 09:35:35;;;;;;;17.00;6.57;;;;;;;;;;6246913;28;20052;-80
2021/11/21 09:38:37;;;;;;;12.88;5.50;;;;;;;;;;6238936;28;20184;-80
2021/11/21 09:41:39;;;;;;;15.13;6.30;;;;;;;;;;6228499;28;20105;-81
2021/11/21 09:44:41;;;;;;;16.77;6.30;;;;;;;;;;6229647;28;20515;-80
2021/11/21 09:47:51;;;;;;;13.98;6.25;;;;;;;;;;6232836;28;20041;-80
2021/11/21 09:50:55;;;;;;;14.18;6.70;;;;;;;;;;6238232;28;20533;-82
2021/11/21 09:53:57;;;;;;;14.02;6.25;;;;;;;;;;6224373;28;20056;-79
2021/11/21 09:56:59;;;;;;;13.43;5.85;;;;;;;;;;6234599;28;20052;-80
2021/11/21 10:00:05;;;;;;;17.77;7.05;;;;;;;;;;6240109;28;20678;-81
2021/11/21 10:03:13;;;;;;;15.25;7.38;;;;;;;;;;6223055;28;20049;-81
2021/11/21 10:06:34;;;;;;;14.50;5.80;;;;;;;;;;6246258;28;20431;-81
2021/11/21 10:09:41;;;;;;;11.52;5.20;;;;;;;;;;6256668;28;20241;-80
2021/11/21 10:12:43;;;;;;;15.68;6.38;;;;;;;;;;6227551;28;20051;-79
2021/11/21 10:15:44;;;;;;;13.05;5.93;;;;;;;;;;6263520;28;20048;-81
2021/11/21 10:18:53;;;;;;;12.95;6.00;;;;;;;;;;6244345;28;20548;-80
2021/11/21 10:21:58;;;;;;;13.38;6.10;;;;;;;;;;6237196;28;20076;-79
2021/11/21 10:25:00;;;;;;;14.60;6.20;;;;;;;;;;6237529;28;20049;-79
2021/11/21 10:28:30;;;;;;;12.38;5.40;;;;;;;;;;6273178;28;20129;-84
2021/11/21 10:31:34;;;;;;;13.23;5.60;;;;;;;;;;6263842;28;20449;-82
2021/11/21 10:34:35;;;;;;;14.75;6.50;;;;;;;;;;6264315;28;20045;-81
2021/11/21 10:37:40;;;;;;;11.55;5.85;;;;;;;;;;6260285;28;20049;-79
2021/11/21 10:40:42;;;;;;;15.10;6.43;;;;;;;;;;6245144;28;20045;-81
2021/11/21 10:43:47;;;;;;;14.68;6.80;;;;;;;;;;6262926;28;20547;-80
2021/11/21 10:46:53;;;;;;;16.38;6.40;;;;;;;;;;6263440;28;20045;-80
2021/11/21 10:49:55;;;;;;;13.38;5.93;;;;;;;;;;6263693;28;20056;-81
2021/11/21 10:52:58;;;;;;;14.20;6.25;;;;;;;;;;6241551;28;20509;-81
2021/11/21 10:56:10;;;;;;;15.77;6.88;;;;;;;;;;6271860;28;20120;-80
2021/11/21 10:59:12;;;;;;;13.48;6.43;;;;;;;;;;6244691;28;20442;-82
2021/11/21 11:02:16;;;;;;;14.20;6.68;;;;;;;;;;6271484;28;20060;-82
2021/11/21 11:05:22;;;;;;;14.27;6.50;;;;;;;;;;6252129;28;20053;-81
2021/11/21 11:08:29;;;;;;;15.20;6.85;;;;;;;;;;6263336;28;20127;-82
2021/11/21 11:11:31;;;;;;;14.88;6.30;;;;;;;;;;6270197;28;20056;-82
2021/11/21 11:14:32;;;;;;;14.88;7.07;;;;;;;;;;6276777;28;20575;-82
2021/11/21 11:17:35;;;;;;;13.18;6.53;;;;;;;;;;6298476;28;20409;-82
2021/11/21 11:20:46;;;;;;;13.10;5.97;;;;;;;;;;6284480;28;20040;-81
2021/11/21 11:23:47;;;;;;;13.05;5.47;;;;;;;;;;6271894;28;20128;-80
2021/11/21 11:27:01;;;;;;;13.30;5.90;;;;;;;;;;6267916;28;20788;-81
2021/11/21 11:30:04;;;;;;;12.23;5.25;;;;;;;;;;6245991;28;20557;-80
2021/11/21 11:33:17;;;;;;;10.02;5.18;;;;;;;;;;6276708;28;20049;-81
2021/11/21 11:36:25;;;;;;;11.07;5.28;;;;;;;;;;6271667;28;20359;-78
2021/11/21 11:39:38;;;;;;;11.90;6.20;;;;;;;;;;6266376;28;20453;-80
2021/11/21 11:42:40;;;;;;;12.82;6.90;;;;;;;;;;6247644;28;20133;-81
2021/11/21 11:45:43;;;;;;;14.77;6.70;;;;;;;;;;6249430;28;20120;-81
2021/11/21 11:48:44;;;;;;;13.40;6.45;;;;;;;;;;6247740;28;20060;-80
2021/11/21 11:51:49;;;;;;;10.40;5.68;;;;;;;;;;6265839;28;20128;-80
2021/11/21 11:55:08;;;;;;;12.65;6.15;;;;;;;;;;6269634;28;20053;-79
2021/11/21 11:58:49;;;;;;;22.98;10.82;;;;;;;;;;6250607;28;20405;-80
2021/11/21 12:01:59;;;;;;;10.73;5.78;;;;;;;;;;6250436;28;20063;-81
2021/11/21 12:05:04;;;;;;;15.38;9.07;;;;;;;;;;6267628;28;20051;-81
2021/11/21 12:08:17;;;;;;;45.22;22.98;;;;;;;;;;6247781;28;20055;-81
2021/11/21 12:11:53;;;;;;;12.13;5.70;;;;;;;;;;6266594;28;20056;-82
2021/11/21 12:14:55;;;;;;;23.75;12.07;;;;;;;;;;6249854;28;20190;-81
2021/11/21 12:17:57;;;;;;;13.00;6.97;;;;;;;;;;6250050;28;20662;-81
2021/11/21 12:20:59;;;;;;;12.00;6.18;;;;;;;;;;6256435;28;20825;-82
2021/11/21 12:24:01;;;;;;;16.10;7.88;;;;;;;;;;6236641;28;20667;-81
2021/11/21 12:27:18;;;;;;;9.65;5.38;;;;;;;;;;6243881;28;20114;-82
2021/11/21 12:30:22;;;;;;;9.68;4.60;;;;;;;;;;6238485;28;20130;-81
2021/11/21 12:33:27;;;;;;;6.97;3.80;;;;;;;;;;6221855;28;20053;-81
2021/11/21 12:37:07;;;;;;;9.93;5.05;;;;;;;;;;6234876;28;20577;-82
2021/11/21 12:40:13;;;;;;;6.95;4.13;;;;;;;;;;6207284;28;20092;-83
2021/11/21 12:43:17;;;;;;;8.65;4.50;;;;;;;;;;6222131;28;20073;-81
2021/11/21 12:46:19;;;;;;;8.13;5.07;;;;;;;;;;6242571;28;20640;-83
2021/11/21 12:49:23;;;;;;;7.95;3.78;;;;;;;;;;6221206;28;20132;-80
2021/11/21 12:52:25;;;;;;;7.28;3.50;;;;;;;;;;6237308;28;20052;-81
2021/11/21 12:55:29;;;;;;;10.18;4.57;;;;;;;;;;6221646;28;20053;-80
2021/11/21 12:58:37;;;;;;;8.77;4.32;;;;;;;;;;6229913;28;20076;-80
2021/11/21 13:01:41;;;;;;;6.72;3.85;;;;;;;;;;6265579;28;20147;-80
2021/11/21 13:04:56;;;;;;;6.82;4.07;;;;;;;;;;6249023;28;20083;-80
2021/11/21 13:07:58;;;;;;;8.07;4.05;;;;;;;;;;6264295;28;20052;-81
2021/11/21 13:11:09;;;;;;;6.43;3.42;;;;;;;;;;6263667;28;20046;-81
2021/11/21 13:14:10;;;;;;;7.85;3.75;;;;;;;;;;6246559;28;20052;-82
2021/11/21 13:17:15;;;;;;;7.22;4.10;;;;;;;;;;6264310;28;20130;-83
2021/11/21 13:20:22;;;;;;;8.02;4.43;;;;;;;;;;6245621;28;20049;-81
2021/11/21 13:23:24;;;;;;;6.65;3.80;;;;;;;;;;6260958;28;20040;-82
2021/11/21 13:26:26;;;;;;;7.67;4.30;;;;;;;;;;6261419;28;20048;-83
2021/11/21 13:29:30;;;;;;;45.88;17.55;;;;;;;;;;6254420;28;20174;-82
2021/11/21 13:32:31;;;;;;;;;;;;;;;;;;6264065;28;20123;-83
2021/11/21 13:35:33;;;;;;;8.93;4.50;;;;;;;;;;6243101;28;20094;-83
2021/11/21 13:38:35;;;;;;;28.40;14.65;;;;;;;;;;6264567;28;20041;-83
2021/11/21 13:41:39;;;;;;;14.32;8.73;;;;;;;;;;6245065;28;20626;-81
2021/11/21 13:44:47;;;;;;;37.25;20.73;;;;;;;;;;6270378;28;20091;-81
2021/11/21 13:47:49;;;;;;;54.03;29.77;;;;;;;;;;6231533;28;20861;-82
2021/11/21 13:50:50;;;;;;;17.90;10.57;;;;;;;;;;6260447;28;20136;-84
2021/11/21 13:53:54;;;;;;;8.38;4.70;;;;;;;;;;6231866;28;20579;-80
2021/11/21 13:56:56;;;;;;;28.95;15.57;;;;;;;;;;6227521;28;20057;-80
2021/11/21 14:00:00;;;;;;;29.48;17.08;;;;;;;;;;6264047;28;20128;-79
2021/11/21 14:03:07;;;;;;;25.65;15.73;;;;;;;;;;6265116;28;20050;-80
2021/11/21 14:06:11;;;;;;;12.23;7.13;;;;;;;;;;6247320;28;20049;-82
2021/11/21 14:09:15;;;;;;;23.77;13.32;;;;;;;;;;6234346;28;20072;-81
2021/11/21 14:12:22;;;;;;;16.38;10.02;;;;;;;;;;6237014;28;20224;-81
2021/11/21 14:15:27;;;;;;;31.08;15.15;;;;;;;;;;6256997;28;20125;-82
2021/11/21 14:18:37;;;;;;;41.55;17.95;;;;;;;;;;6261109;28;20052;-83
2021/11/21 14:21:38;;;;;;;14.65;7.68;;;;;;;;;;6281638;28;20049;-84
2021/11/21 14:24:43;;;;;;;22.77;11.98;;;;;;;;;;6264643;28;20053;-84
2021/11/21 14:27:44;;;;;;;15.10;7.63;;;;;;;;;;6276676;28;20100;-82
2021/11/21 14:30:49;;;;;;;8.70;4.70;;;;;;;;;;6275224;28;20188;-85
2021/11/21 14:33:52;;;;;;;37.38;18.60;;;;;;;;;;6258601;28;20108;-83
2021/11/21 14:36:54;;;;;;;3.00;2.00;;;;;;;;;;6233891;28;20105;-81
2021/11/21 14:40:05;;;;;;;2.13;1.83;;;;;;;;;;6271951;28;20137;-80
2021/11/21 14:43:07;;;;;;;2.67;2.10;;;;;;;;;;6252516;28;20493;-81
2021/11/21 14:46:09;;;;;;;3.20;2.30;;;;;;;;;;6281508;28;20105;-80
2021/11/21 14:49:12;;;;;;;3.77;2.30;;;;;;;;;;6264591;28;20047;-81
2021/11/21 14:52:16;;;;;;;3.43;2.50;;;;;;;;;;6266858;28;20037;-82
2021/11/21 14:55:19;;;;;;;10.70;6.28;;;;;;;;;;6273917;28;20108;-82
2021/11/21 14:58:22;;;;;;;20.15;13.18;;;;;;;;;;6256619;28;20142;-83
2021/11/21 15:01:34;;;;;;;;;;;;;;;;;;6270328;28;20052;-80
2021/11/21 15:04:36;;;;;;;8.98;4.60;;;;;;;;;;6251920;28;19931;-79
2021/11/21 15:07:37;;;;;;;4.72;3.72;;;;;;;;;;6261836;28;20383;-78
2021/11/21 15:10:39;;;;;;;4.32;3.10;;;;;;;;;;6265776;28;20047;-79
2021/11/21 15:13:44;;;;;;;3.80;2.97;;;;;;;;;;6267288;28;20071;-80
2021/11/21 15:16:48;;;;;;;5.05;2.97;;;;;;;;;;6274679;28;20285;-83
2021/11/21 15:19:49;;;;;;;4.22;2.80;;;;;;;;;;6253006;28;20056;-83
2021/11/21 15:22:51;;;;;;;3.67;2.50;;;;;;;;;;6269980;28;20116;-82
2021/11/21 15:25:53;;;;;;;3.28;1.98;;;;;;;;;;6271878;28;20132;-80
2021/11/21 15:28:56;;;;;;;3.15;2.00;;;;;;;;;;6269316;28;20079;-82
2021/11/21 15:31:57;;;;;;;3.65;2.17;;;;;;;;;;6238203;28;20124;-82
2021/11/21 15:34:59;;;;;;;2.78;1.75;;;;;;;;;;6267869;28;20049;-80
2021/11/21 15:38:00;;;;;;;7.53;4.25;;;;;;;;;;6255458;28;20041;-80
2021/11/21 15:41:03;;;;;;;7.93;4.82;;;;;;;;;;6271584;28;20460;-81
2021/11/21 15:44:05;;;;;;;6.43;3.83;;;;;;;;;;6252971;28;20076;-82
2021/11/21 15:47:09;;;;;;;7.63;4.82;;;;;;;;;;6286889;28;20040;-83
2021/11/21 15:50:12;;;;;;;12.60;4.57;;;;;;;;;;6297792;28;20104;-82
2021/11/21 15:53:15;;;;;;;;;;;;;;;;;;6245017;28;20140;-79
2021/11/21 15:56:16;;;;;;;12.18;6.75;;;;;;;;;;6246909;28;19956;-80
2021/11/21 15:59:18;;;;;;;9.18;5.70;;;;;;;;;;6251776;28;20067;-82
2021/11/21 16:02:19;;;;;;;7.82;5.13;;;;;;;;;;6273976;28;20045;-83
2021/11/21 16:05:21;;;;;;;14.30;8.82;;;;;;;;;;6253805;28;20060;-81
2021/11/21 16:08:23;;;;;;;13.13;7.53;;;;;;;;;;6256057;28;20106;-81
2021/11/21 16:11:29;;;;;;;15.90;9.20;;;;;;;;;;6251392;28;20062;-80
2021/11/21 16:14:31;;;;;;;22.45;12.18;;;;;;;;;;6241876;28;20052;-80
2021/11/21 16:17:33;;;;;;;21.27;13.38;;;;;;;;;;6267506;28;20037;-80
2021/11/21 16:20:36;;;;;;;22.35;15.07;;;;;;;;;;6266617;28;20053;-81
2021/11/21 16:23:40;;;;;;;16.65;10.98;;;;;;;;;;6263471;28;20044;-78
2021/11/21 16:26:42;;;;;;;14.63;9.50;;;;;;;;;;6265094;28;20053;-81
2021/11/21 16:29:44;;;;;;;10.30;6.53;;;;;;;;;;6265889;28;20142;-81
2021/11/21 16:32:48;;;;;;;11.38;6.63;;;;;;;;;;6231283;28;20049;-80
2021/11/21 16:35:50;;;;;;;12.80;7.05;;;;;;;;;;6228717;28;20504;-81
2021/11/21 16:38:54;;;;;;;8.82;5.05;;;;;;;;;;6235346;28;20044;-79
2021/11/21 16:41:55;;;;;;;7.32;4.82;;;;;;;;;;6225602;28;20067;-81
2021/11/21 16:44:57;;;;;;;11.73;6.40;;;;;;;;;;6236401;28;20124;-81
2021/11/21 16:47:59;;;;;;;11.07;5.90;;;;;;;;;;6285241;28;20076;-80
2021/11/21 16:51:02;;;;;;;9.60;5.53;;;;;;;;;;6247599;28;20037;-81
2021/11/21 16:54:04;;;;;;;15.63;11.07;;;;;;;;;;6250264;28;20042;-80
2021/11/21 16:57:22;;;;;;;9.15;5.88;;;;;;;;;;6239671;28;20049;-81
2021/11/21 17:00:24;;;;;;;17.63;11.05;;;;;;;;;;6240707;28;20362;-80
2021/11/21 17:03:26;;;;;;;11.88;7.18;;;;;;;;;;6225886;28;20048;-82
2021/11/21 17:06:29;;;;;;;9.68;5.45;;;;;;;;;;6239860;28;20095;-82
2021/11/21 17:09:30;;;;;;;9.97;5.57;;;;;;;;;;6210346;28;20483;-79
2021/11/21 17:12:32;;;;;;;10.48;6.10;;;;;;;;;;6239120;28;20467;-81
2021/11/21 17:15:34;;;;;;;10.57;6.43;;;;;;;;;;6243436;28;20191;-82
2021/11/21 17:18:36;;;;;;;11.85;7.00;;;;;;;;;;6241844;28;20130;-82
2021/11/21 17:21:38;;;;;;;10.88;7.25;;;;;;;;;;6241148;28;20148;-79
2021/11/21 17:24:41;;;;;;;13.50;8.90;;;;;;;;;;6242746;28;20056;-81
2021/11/21 17:27:42;;;;;;;14.50;9.27;;;;;;;;;;6233042;28;20033;-82
2021/11/21 17:30:44;;;;;;;15.35;9.27;;;;;;;;;;6248795;28;20083;-81
2021/11/21 17:33:46;;;;;;;15.90;10.02;;;;;;;;;;6205780;28;20048;-80
2021/11/21 17:36:47;;;;;;;15.48;9.52;;;;;;;;;;6268844;28;20055;-82
2021/11/21 17:39:49;;;;;;;13.73;9.90;;;;;;;;;;6266553;28;20051;-80
2021/11/21 17:42:51;;;;;;;19.58;10.48;;;;;;;;;;6247655;28;20049;-81
2021/11/21 17:45:53;;;;;;;21.45;11.60;;;;;;;;;;6252436;28;20076;-79
2021/11/21 17:48:55;;;;;;;15.80;8.80;;;;;;;;;;6275709;28;20051;-78
2021/11/21 17:51:56;;;;;;;16.60;8.90;;;;;;;;;;6263044;28;20070;-81
2021/11/21 17:55:03;;;;;;;14.52;8.07;;;;;;;;;;6250001;28;20110;-81
2021/11/21 17:58:04;;;;;;;15.05;7.97;;;;;;;;;;6264676;28;20270;-80
2021/11/21 18:01:06;;;;;;;13.07;7.32;;;;;;;;;;6252387;28;20045;-79
2021/11/21 18:04:08;;;;;;;14.57;7.07;;;;;;;;;;6290048;28;20066;-80
2021/11/21 18:07:10;;;;;;;14.80;6.72;;;;;;;;;;6266549;28;20048;-81
2021/11/21 18:10:18;;;;;;;18.98;8.18;;;;;;;;;;6239917;28;20118;-78
2021/11/21 18:13:20;;;;;;;19.48;9.98;;;;;;;;;;6255991;28;20053;-80
2021/11/21 18:16:23;;;;;;;15.30;8.10;;;;;;;;;;6267191;28;20065;-78
2021/11/21 18:19:25;;;;;;;14.88;6.53;;;;;;;;;;6248935;28;20123;-81
2021/11/21 18:22:27;;;;;;;14.57;6.70;;;;;;;;;;6256302;28;20051;-80
2021/11/21 18:25:29;;;;;;;11.90;6.07;;;;;;;;;;6259390;28;20045;-78
2021/11/21 18:28:30;;;;;;;12.05;6.80;;;;;;;;;;6264288;28;20051;-79
2021/11/21 18:31:32;;;;;;;16.75;9.10;;;;;;;;;;6266180;28;20791;-80
2021/11/21 18:34:34;;;;;;;14.65;8.68;;;;;;;;;;6247343;28;20469;-81
2021/11/21 18:37:35;;;;;;;13.43;6.68;;;;;;;;;;6240137;28;20065;-80
2021/11/21 18:40:38;;;;;;;14.20;7.75;;;;;;;;;;6240873;28;20103;-82
2021/11/21 18:43:41;;;;;;;14.85;7.57;;;;;;;;;;6247237;28;20064;-81
2021/11/21 18:46:44;;;;;;;15.20;7.75;;;;;;;;;;6266185;28;20387;-81
2021/11/21 18:49:48;;;;;;;14.50;8.23;;;;;;;;;;6261457;28;20080;-79
2021/11/21 18:52:51;;;;;;;17.75;8.60;;;;;;;;;;6256930;28;20398;-80
2021/11/21 19:02:15;;;;;;;19.58;9.32;;;;;;;;;;6260344;28;20065;-82